Terminal Aerodrome Forecast
Issued by NWS Los Angeles, CA

Home | Current Version | Previous Version | Text Only | Print | Product List | Glossary On
Versions: 1 2 3 4 5 6 7 8 9 10 11 12 13 14 15 16 17 18 19 20 21 22 23 24 25 26 27 28 29 30 31
000
FTUS46 KLOX 050238 AAA
TAFSMX
TAF AMD
KSMX 050238Z 0503/0524 25010KT P6SM BKN025 OVC040
     FM050500 VRB03KT P6SM SCT015 OVC025
     FM051800 24006KT P6SM VCSH BKN025 OVC040
     FM052100 27010KT P6SM VCSH SCT025 BKN040=

USA.gov is the U.S. government's official web portal to all federal, state and local government web resources and services.